Kirkland Lake, Canada
Current Conditions -  °F | °C
As of 11:21 PM on Monday 22 Dec 2014 (Local Time) from CYXR Reporting Station
Overcast Overcast  
Wind Chill:   Ceiling: 600
Heat Index: 21°   Visibility: 9mi
Dew Point: 21°   Wind: 13mph
Humidity: 100%   Direction: 130°SE
Pressure: 30.12"   Gusts: NA
Location:  48.15°N, 80.04°W
Report Text: CYXR 230421Z AUTO 13011KT 9SM OVC006 M06/M06 A3012 RMK SLP215
Loading
Personal Weather Stations






























Interactive Weather Map New forecast layout! Learn more

10-Day Weather Forecast

Advertisements
Track Severe Weather on mobile